Time;durP1;ratioP1;P1;durP2;ratioP2;P2;SDS_P1;SDS_P2;PMS_P1;PMS_P2;Temp;Humidity;BMP_temperature;BMP_pressure;BME280_temperature;BME280_humidity;BME280_pressure;Samples;Min_cycle;Max_cycle;Signal;HPM_P1;HPM_P2
2022/11/25 00:01:47;;;;;;;12.88;10.80;;;;;;;;;;5034630;28;20109;-81
2022/11/25 00:04:13;;;;;;;13.02;9.52;;;;;;;;;;5034269;28;20087;-78
2022/11/25 00:06:39;;;;;;;12.20;7.38;;;;;;;;;;5034524;28;20044;-78
2022/11/25 00:09:12;;;;;;;7.47;5.93;;;;;;;;;;5034195;28;20029;-79
2022/11/25 00:11:39;;;;;;;7.18;5.70;;;;;;;;;;5034316;28;20021;-80
2022/11/25 00:14:06;;;;;;;11.77;6.93;;;;;;;;;;5033496;28;20034;-81
2022/11/25 00:16:32;;;;;;;12.55;8.10;;;;;;;;;;5034282;28;20095;-80
2022/11/25 00:18:58;;;;;;;11.73;7.68;;;;;;;;;;5034258;28;20029;-81
2022/11/25 00:21:26;;;;;;;10.52;7.85;;;;;;;;;;5034081;28;20108;-81
2022/11/25 00:23:53;;;;;;;12.50;9.00;;;;;;;;;;5034179;28;20025;-81
2022/11/25 00:26:19;;;;;;;13.30;8.68;;;;;;;;;;5033727;28;20072;-81
2022/11/25 00:28:46;;;;;;;10.68;7.00;;;;;;;;;;5034069;28;20029;-81
2022/11/25 00:31:14;;;;;;;11.30;7.68;;;;;;;;;;5033578;28;20104;-80
2022/11/25 00:33:40;;;;;;;7.78;5.68;;;;;;;;;;5033924;28;20029;-80
2022/11/25 00:36:07;;;;;;;6.75;4.57;;;;;;;;;;5033619;28;20404;-81
2022/11/25 00:38:33;;;;;;;5.10;3.83;;;;;;;;;;5033797;28;20037;-81
2022/11/25 00:46:28;;;;;;;6.68;4.75;;;;;;;;;;5033905;28;20040;-81
2022/11/25 00:48:54;;;;;;;5.95;4.43;;;;;;;;;;5033323;28;20025;-82
2022/11/25 00:51:20;;;;;;;5.28;3.67;;;;;;;;;;5033456;28;20053;-82
2022/11/25 00:53:46;;;;;;;4.18;3.70;;;;;;;;;;5033292;28;20021;-80
2022/11/25 00:56:13;;;;;;;5.30;3.55;;;;;;;;;;5033256;28;20484;-80
2022/11/25 00:58:39;;;;;;;5.28;3.75;;;;;;;;;;5015733;28;20026;-80
2022/11/25 01:01:05;;;;;;;5.57;3.72;;;;;;;;;;5033140;28;20116;-80
2022/11/25 01:03:32;;;;;;;6.93;4.22;;;;;;;;;;5033367;28;20459;-81
2022/11/25 01:06:01;;;;;;;7.20;4.57;;;;;;;;;;5032946;28;20021;-80
2022/11/25 01:08:31;;;;;;;6.55;4.15;;;;;;;;;;5033249;28;20029;-81
2022/11/25 01:11:01;;;;;;;6.10;4.55;;;;;;;;;;5032764;28;20369;-81
2022/11/25 01:13:29;;;;;;;6.53;5.10;;;;;;;;;;5032919;28;20034;-80
2022/11/25 01:15:56;;;;;;;5.25;3.33;;;;;;;;;;5032941;28;20033;-80
2022/11/25 01:18:22;;;;;;;5.93;4.18;;;;;;;;;;5033037;28;20080;-81
2022/11/25 01:20:48;;;;;;;5.18;4.45;;;;;;;;;;5032818;28;20034;-81
2022/11/25 01:23:14;;;;;;;7.88;3.95;;;;;;;;;;5033051;28;20546;-81
2022/11/25 01:25:41;;;;;;;5.47;3.75;;;;;;;;;;5032057;28;20133;-82
2022/11/25 01:28:07;;;;;;;5.40;3.88;;;;;;;;;;5015490;28;20057;-80
2022/11/25 01:30:33;;;;;;;6.63;4.30;;;;;;;;;;5032964;28;20021;-80
2022/11/25 01:32:59;;;;;;;5.60;3.47;;;;;;;;;;5032603;28;20112;-80
2022/11/25 01:35:26;;;;;;;4.35;3.53;;;;;;;;;;5032667;28;20479;-81
2022/11/25 01:37:52;;;;;;;6.55;3.78;;;;;;;;;;5032623;28;20499;-80
2022/11/25 01:40:18;;;;;;;5.85;4.53;;;;;;;;;;5032777;28;20128;-79
2022/11/25 01:42:48;;;;;;;4.78;3.47;;;;;;;;;;5032711;28;20033;-82
2022/11/25 01:45:23;;;;;;;5.63;2.90;;;;;;;;;;5032755;28;20100;-81
2022/11/25 01:47:56;;;;;;;4.93;2.88;;;;;;;;;;5032560;28;20053;-80
2022/11/25 01:50:24;;;;;;;4.05;3.25;;;;;;;;;;5032619;28;20033;-80
2022/11/25 01:52:51;;;;;;;3.85;2.45;;;;;;;;;;5032337;28;20032;-81
2022/11/25 01:55:20;;;;;;;3.97;2.70;;;;;;;;;;5032417;28;20037;-81
2022/11/25 01:58:05;;;;;;;5.63;3.00;;;;;;;;;;5032234;28;20083;-82
2022/11/25 02:00:31;;;;;;;3.28;2.30;;;;;;;;;;5032119;28;20049;-80
2022/11/25 02:02:58;;;;;;;3.03;2.08;;;;;;;;;;5014837;28;20466;-80
2022/11/25 02:05:44;;;;;;;2.97;2.25;;;;;;;;;;5032031;28;20033;-80
2022/11/25 02:08:12;;;;;;;3.47;2.03;;;;;;;;;;5031745;28;20108;-80
2022/11/25 02:10:39;;;;;;;2.42;1.65;;;;;;;;;;5032259;28;20082;-79
2022/11/25 02:13:05;;;;;;;2.88;1.45;;;;;;;;;;5032075;28;20064;-81
2022/11/25 02:15:34;;;;;;;3.42;1.95;;;;;;;;;;5032287;28;20542;-82
2022/11/25 02:18:00;;;;;;;2.95;2.10;;;;;;;;;;5032282;28;20030;-80
2022/11/25 02:20:26;;;;;;;2.70;1.60;;;;;;;;;;5032317;28;20174;-81
2022/11/25 02:22:57;;;;;;;2.30;1.45;;;;;;;;;;5032230;28;20201;-81
2022/11/25 02:25:30;;;;;;;2.35;1.40;;;;;;;;;;5032056;28;20103;-81
2022/11/25 02:27:59;;;;;;;3.93;2.53;;;;;;;;;;5032103;28;20400;-81
2022/11/25 02:30:25;;;;;;;3.17;2.22;;;;;;;;;;5032248;28;20099;-80
2022/11/25 02:32:51;;;;;;;3.45;2.58;;;;;;;;;;5032111;28;20033;-81
2022/11/25 02:35:37;;;;;;;2.75;1.95;;;;;;;;;;5031807;28;20033;-80
2022/11/25 02:38:05;;;;;;;3.40;2.13;;;;;;;;;;5034988;28;20029;-81
2022/11/25 02:40:33;;;;;;;2.40;1.55;;;;;;;;;;5036175;28;20033;-81
2022/11/25 02:42:59;;;;;;;2.45;1.90;;;;;;;;;;5035796;28;20105;-81
2022/11/25 02:45:44;;;;;;;2.17;1.58;;;;;;;;;;5035957;28;20480;-80
2022/11/25 02:48:10;;;;;;;2.38;1.52;;;;;;;;;;5035903;28;20033;-81
2022/11/25 02:50:36;;;;;;;1.92;1.25;;;;;;;;;;5035712;28;20031;-81
2022/11/25 02:53:02;;;;;;;2.97;2.00;;;;;;;;;;5018263;28;20025;-81
2022/11/25 02:55:28;;;;;;;2.72;1.73;;;;;;;;;;5035657;28;20029;-81
2022/11/25 02:57:54;;;;;;;4.13;2.30;;;;;;;;;;5035882;28;20033;-81
2022/11/25 03:00:20;;;;;;;4.47;2.17;;;;;;;;;;5035408;28;20045;-81
2022/11/25 03:02:47;;;;;;;2.78;2.17;;;;;;;;;;5035500;28;20022;-81
2022/11/25 03:05:13;;;;;;;3.97;1.95;;;;;;;;;;5035664;28;20052;-80
2022/11/25 03:07:39;;;;;;;6.40;4.22;;;;;;;;;;5035462;28;20029;-80
2022/11/25 03:10:05;;;;;;;11.38;4.80;;;;;;;;;;5035569;28;20046;-81
2022/11/25 03:12:31;;;;;;;4.07;1.80;;;;;;;;;;5035448;28;20029;-80
2022/11/25 03:14:57;;;;;;;4.38;2.00;;;;;;;;;;5035239;28;20083;-81
2022/11/25 03:17:23;;;;;;;3.88;2.58;;;;;;;;;;5035280;28;20135;-80
2022/11/25 03:19:49;;;;;;;4.63;2.55;;;;;;;;;;5035214;28;20029;-81
2022/11/25 03:22:15;;;;;;;5.35;2.42;;;;;;;;;;5023632;28;20127;-81
2022/11/25 03:24:41;;;;;;;3.15;2.03;;;;;;;;;;5015155;28;20445;-80
2022/11/25 03:27:08;;;;;;;8.07;3.72;;;;;;;;;;5015404;28;20053;-81
2022/11/25 03:29:34;;;;;;;3.92;1.90;;;;;;;;;;5015283;28;20022;-81
2022/11/25 03:32:00;;;;;;;2.03;1.15;;;;;;;;;;5015307;28;20026;-80
2022/11/25 03:34:26;;;;;;;1.98;1.20;;;;;;;;;;5015181;28;20030;-81
2022/11/25 03:36:52;;;;;;;2.03;1.30;;;;;;;;;;5014999;28;20469;-79
2022/11/25 03:39:18;;;;;;;1.75;1.23;;;;;;;;;;5015177;28;20026;-82
2022/11/25 03:41:44;;;;;;;2.30;1.02;;;;;;;;;;5015023;28;20377;-80
2022/11/25 03:44:10;;;;;;;1.20;0.70;;;;;;;;;;5014967;28;20033;-80
2022/11/25 03:46:36;;;;;;;1.95;0.90;;;;;;;;;;5015217;28;20026;-81
2022/11/25 03:49:02;;;;;;;2.78;1.27;;;;;;;;;;5013596;28;20030;-81
2022/11/25 03:51:29;;;;;;;2.40;1.08;;;;;;;;;;5014964;28;20022;-81
2022/11/25 03:53:55;;;;;;;2.45;1.10;;;;;;;;;;5014808;28;20022;-81
2022/11/25 03:56:21;;;;;;;1.80;0.85;;;;;;;;;;5014722;28;20030;-82
2022/11/25 03:58:47;;;;;;;1.45;0.63;;;;;;;;;;5014769;28;20025;-82
2022/11/25 04:01:13;;;;;;;2.85;1.58;;;;;;;;;;5014518;28;20045;-81
2022/11/25 04:03:39;;;;;;;3.17;1.30;;;;;;;;;;5014765;28;20049;-78
2022/11/25 04:06:05;;;;;;;1.67;0.80;;;;;;;;;;5014661;28;20152;-79
2022/11/25 04:08:31;;;;;;;1.90;1.48;;;;;;;;;;5014660;28;20492;-78
2022/11/25 04:10:57;;;;;;;2.80;1.88;;;;;;;;;;5014180;28;20547;-78
2022/11/25 04:13:23;;;;;;;3.42;1.13;;;;;;;;;;5014475;28;20029;-78
2022/11/25 04:15:50;;;;;;;2.17;0.90;;;;;;;;;;5014451;28;20033;-80
2022/11/25 04:18:17;;;;;;;3.35;1.50;;;;;;;;;;5014445;28;20034;-79
2022/11/25 04:20:43;;;;;;;2.22;0.90;;;;;;;;;;5012954;28;20034;-80
2022/11/25 04:23:10;;;;;;;2.10;1.23;;;;;;;;;;5014269;28;20030;-82
2022/11/25 04:25:36;;;;;;;2.00;1.40;;;;;;;;;;5014420;28;20109;-82
2022/11/25 04:28:02;;;;;;;4.05;1.77;;;;;;;;;;5014203;28;20026;-82
2022/11/25 04:30:28;;;;;;;3.40;1.45;;;;;;;;;;5014335;28;20080;-82
2022/11/25 04:32:54;;;;;;;2.85;0.80;;;;;;;;;;5014346;28;20037;-83
2022/11/25 04:35:21;;;;;;;5.82;2.78;;;;;;;;;;5014084;28;20037;-83
2022/11/25 04:37:47;;;;;;;4.75;3.40;;;;;;;;;;5014103;28;20095;-82
2022/11/25 04:40:13;;;;;;;3.58;1.55;;;;;;;;;;5013880;28;20049;-82
2022/11/25 04:42:40;;;;;;;2.53;1.30;;;;;;;;;;5014033;28;20030;-81
2022/11/25 04:45:10;;;;;;;3.53;1.60;;;;;;;;;;5013364;28;20026;-79
2022/11/25 04:47:36;;;;;;;3.53;1.50;;;;;;;;;;5013890;28;20084;-81
2022/11/25 04:50:03;;;;;;;1.67;0.90;;;;;;;;;;5015549;28;20504;-82
2022/11/25 04:52:30;;;;;;;3.22;2.13;;;;;;;;;;5033432;28;20040;-81
2022/11/25 04:54:56;;;;;;;3.08;1.80;;;;;;;;;;5015269;28;20095;-82
2022/11/25 04:57:22;;;;;;;1.80;1.20;;;;;;;;;;5033041;28;20095;-81
2022/11/25 04:59:58;;;;;;;1.88;1.17;;;;;;;;;;5032829;28;20523;-82
2022/11/25 05:02:26;;;;;;;1.73;0.80;;;;;;;;;;5033271;28;20057;-80
2022/11/25 05:04:52;;;;;;;1.13;0.80;;;;;;;;;;5033280;28;20099;-80
2022/11/25 05:07:19;;;;;;;2.40;1.20;;;;;;;;;;5022575;28;20026;-81
2022/11/25 05:09:46;;;;;;;2.63;1.42;;;;;;;;;;5010257;28;20030;-81
2022/11/25 05:12:14;;;;;;;1.35;1.10;;;;;;;;;;5012355;28;20026;-80
2022/11/25 05:14:40;;;;;;;1.98;1.27;;;;;;;;;;5009353;28;20362;-79
2022/11/25 05:17:07;;;;;;;2.15;1.15;;;;;;;;;;5011806;28;20100;-82
2022/11/25 05:19:35;;;;;;;3.90;2.67;;;;;;;;;;5012483;28;20038;-80
2022/11/25 05:22:01;;;;;;;2.53;1.67;;;;;;;;;;5013117;28;20117;-81
2022/11/25 05:24:27;;;;;;;3.05;1.27;;;;;;;;;;5013198;28;20048;-80
2022/11/25 05:26:53;;;;;;;2.22;1.40;;;;;;;;;;5013151;28;20017;-80
2022/11/25 05:29:20;;;;;;;2.85;1.60;;;;;;;;;;5013141;28;20029;-81
2022/11/25 05:31:46;;;;;;;2.70;1.35;;;;;;;;;;5013170;28;20108;-80
2022/11/25 05:34:12;;;;;;;2.28;1.58;;;;;;;;;;5012738;28;20037;-81
2022/11/25 05:36:38;;;;;;;2.75;1.55;;;;;;;;;;4995103;28;20127;-79
2022/11/25 05:39:04;;;;;;;4.25;1.63;;;;;;;;;;5012917;28;20026;-80
2022/11/25 05:41:30;;;;;;;2.70;1.60;;;;;;;;;;5012043;28;20476;-83
2022/11/25 05:43:56;;;;;;;2.28;1.23;;;;;;;;;;5012624;28;20022;-82
2022/11/25 05:46:23;;;;;;;3.58;1.77;;;;;;;;;;4995219;28;20611;-82
2022/11/25 05:48:52;;;;;;;3.42;2.30;;;;;;;;;;5012871;28;20672;-80
2022/11/25 05:51:18;;;;;;;3.15;1.30;;;;;;;;;;5012556;28;20033;-83
2022/11/25 05:53:51;;;;;;;2.75;1.52;;;;;;;;;;5012479;28;20473;-82
2022/11/25 05:56:17;;;;;;;3.85;1.67;;;;;;;;;;5012318;28;20428;-81
2022/11/25 05:58:43;;;;;;;2.25;1.23;;;;;;;;;;5012532;28;20030;-79
2022/11/25 06:01:27;;;;;;;2.72;1.83;;;;;;;;;;4994132;28;20061;-83
2022/11/25 06:03:53;;;;;;;3.53;1.52;;;;;;;;;;4994930;28;20050;-81
2022/11/25 06:06:20;;;;;;;2.83;1.60;;;;;;;;;;5012706;28;20053;-81
2022/11/25 06:08:47;;;;;;;5.97;2.65;;;;;;;;;;5012238;28;20030;-82
2022/11/25 06:11:15;;;;;;;4.68;3.25;;;;;;;;;;5011866;28;20131;-80
2022/11/25 06:13:42;;;;;;;7.32;3.60;;;;;;;;;;5012401;28;20049;-80
2022/11/25 06:16:52;;;;;;;5.00;2.33;;;;;;;;;;5012396;28;20029;-82
2022/11/25 06:19:44;;;;;;;4.60;2.50;;;;;;;;;;5010236;28;20026;-82
2022/11/25 06:25:46;;;;;;;8.68;6.57;;;;;;;;;;4918609;29;20508;-82
2022/11/25 06:28:47;;;;;;;;;;;;;;;;;;;;;
2022/11/25 06:31:23;;;;;;;5.88;4.53;;;;;;;;;;4999695;28;20026;-80
2022/11/25 06:36:37;;;;;;;5.10;3.05;;;;;;;;;;5024550;28;20053;-82
2022/11/25 06:39:03;;;;;;;10.93;3.83;;;;;;;;;;5012141;28;20037;-78
2022/11/25 06:41:29;;;;;;;16.65;6.93;;;;;;;;;;5004597;28;20034;-80
2022/11/25 06:43:56;;;;;;;18.35;5.75;;;;;;;;;;5008352;28;20037;-81
2022/11/25 06:46:22;;;;;;;13.07;7.00;;;;;;;;;;5013950;28;20377;-79
2022/11/25 06:48:48;;;;;;;19.65;10.68;;;;;;;;;;4999128;28;20034;-82
2022/11/25 06:51:15;;;;;;;20.95;15.15;;;;;;;;;;5011690;28;20436;-83
2022/11/25 06:53:41;;;;;;;16.48;12.57;;;;;;;;;;5021612;28;20034;-82
2022/11/25 06:56:26;;;;;;;12.80;7.75;;;;;;;;;;5011016;28;20033;-82
2022/11/25 06:58:52;;;;;;;;;;;;;;;;;;5007550;28;20351;-82
2022/11/25 07:01:19;;;;;;;10.85;6.70;;;;;;;;;;5007894;28;20011;-86
2022/11/25 07:03:45;;;;;;;5.80;4.40;;;;;;;;;;5004550;28;20498;-79
2022/11/25 07:06:12;;;;;;;11.60;5.05;;;;;;;;;;5013234;28;20477;-86
2022/11/25 07:08:39;;;;;;;5.38;3.53;;;;;;;;;;5017162;28;20014;-82
2022/11/25 07:11:19;;;;;;;3.35;2.20;;;;;;;;;;5014508;28;20469;-82
2022/11/25 07:13:47;;;;;;;7.03;3.70;;;;;;;;;;5007201;28;20037;-84
2022/11/25 07:16:14;;;;;;;4.65;3.35;;;;;;;;;;5009257;28;20562;-81
2022/11/25 07:18:40;;;;;;;6.60;4.50;;;;;;;;;;5019773;28;20034;-82
2022/11/25 07:21:14;;;;;;;7.15;3.08;;;;;;;;;;5008874;28;20030;-82
2022/11/25 07:23:41;;;;;;;4.78;2.40;;;;;;;;;;5012024;28;20076;-80
2022/11/25 07:26:08;;;;;;;4.40;2.20;;;;;;;;;;5012257;28;20278;-80
2022/11/25 07:28:36;;;;;;;3.97;2.50;;;;;;;;;;5011907;28;20552;-81
2022/11/25 07:31:06;;;;;;;5.07;2.42;;;;;;;;;;5012919;28;20081;-79
2022/11/25 07:33:32;;;;;;;6.10;2.67;;;;;;;;;;5031042;28;20477;-80
2022/11/25 07:36:06;;;;;;;5.30;3.92;;;;;;;;;;5025733;28;20033;-81
2022/11/25 07:38:32;;;;;;;3.40;2.53;;;;;;;;;;5013654;28;20030;-81
2022/11/25 07:41:04;;;;;;;94.38;30.63;;;;;;;;;;5009442;28;20485;-82
2022/11/25 07:43:31;;;;;;;9.43;3.78;;;;;;;;;;5032807;28;20013;-79
2022/11/25 07:45:57;;;;;;;6.70;2.72;;;;;;;;;;5021039;28;20062;-82
2022/11/25 07:48:26;;;;;;;17.98;13.75;;;;;;;;;;5010187;28;20034;-83
2022/11/25 07:50:52;;;;;;;8.90;2.47;;;;;;;;;;5005455;28;20113;-80
2022/11/25 07:53:18;;;;;;;5.15;2.80;;;;;;;;;;5004961;28;20389;-80
2022/11/25 07:55:48;;;;;;;8.43;4.03;;;;;;;;;;5018290;28;20056;-84
2022/11/25 07:58:14;;;;;;;8.40;4.15;;;;;;;;;;5020990;28;20065;-80
2022/11/25 08:00:40;;;;;;;3.78;2.17;;;;;;;;;;4999364;28;20077;-86
2022/11/25 08:03:06;;;;;;;3.28;1.95;;;;;;;;;;5013099;28;20037;-80
2022/11/25 08:05:32;;;;;;;3.40;2.50;;;;;;;;;;4995327;28;20073;-83
2022/11/25 08:07:59;;;;;;;5.57;1.83;;;;;;;;;;5013126;28;20033;-81
2022/11/25 08:10:25;;;;;;;4.68;2.10;;;;;;;;;;5011860;28;20029;-79
2022/11/25 08:12:51;;;;;;;4.45;2.70;;;;;;;;;;5003790;28;20371;-82
2022/11/25 08:15:17;;;;;;;257.67;85.93;;;;;;;;;;5019278;28;20028;-80
2022/11/25 08:17:43;;;;;;;289.17;89.97;;;;;;;;;;5011548;28;20049;-85
2022/11/25 08:20:09;;;;;;;11.00;4.35;;;;;;;;;;5010077;28;20034;-81
2022/11/25 08:22:35;;;;;;;3.13;2.28;;;;;;;;;;5006652;28;20113;-82
2022/11/25 08:25:01;;;;;;;3.75;2.03;;;;;;;;;;5018689;28;20037;-83
2022/11/25 08:27:27;;;;;;;2.47;1.60;;;;;;;;;;5012836;28;20493;-81
2022/11/25 08:29:53;;;;;;;5.22;2.80;;;;;;;;;;5012260;28;20033;-81
2022/11/25 08:32:19;;;;;;;3.58;1.52;;;;;;;;;;5014895;28;20030;-84
2022/11/25 08:34:46;;;;;;;90.38;27.80;;;;;;;;;;5016378;28;20033;-85
2022/11/25 08:37:12;;;;;;;78.85;28.63;;;;;;;;;;4996671;28;20392;-84
2022/11/25 08:39:38;;;;;;;100.15;33.42;;;;;;;;;;5013409;28;20036;-83
2022/11/25 08:42:05;;;;;;;67.43;22.27;;;;;;;;;;5014106;28;20046;-80
2022/11/25 08:44:31;;;;;;;68.22;21.92;;;;;;;;;;4993766;28;20076;-87
2022/11/25 08:46:57;;;;;;;6.07;3.65;;;;;;;;;;5011820;28;20153;-80
2022/11/25 08:49:25;;;;;;;22.08;8.15;;;;;;;;;;5011286;28;20041;-81
2022/11/25 08:51:52;;;;;;;4.40;1.70;;;;;;;;;;5009007;28;20072;-81
2022/11/25 08:54:18;;;;;;;6.03;1.70;;;;;;;;;;4997614;28;20030;-80
2022/11/25 08:56:44;;;;;;;3.72;1.70;;;;;;;;;;5018797;28;20091;-78
2022/11/25 08:59:10;;;;;;;4.75;1.60;;;;;;;;;;5030181;28;20037;-78
2022/11/25 09:01:36;;;;;;;2.90;1.65;;;;;;;;;;5030835;28;20054;-82
2022/11/25 09:04:08;;;;;;;4.15;1.52;;;;;;;;;;5030721;28;20033;-83
2022/11/25 09:06:34;;;;;;;2.47;1.00;;;;;;;;;;5012337;28;20022;-86
2022/11/25 09:09:00;;;;;;;4.20;1.90;;;;;;;;;;5004570;28;20044;-81
2022/11/25 09:11:27;;;;;;;3.83;1.15;;;;;;;;;;5011693;28;20092;-84
2022/11/25 09:13:53;;;;;;;3.45;1.17;;;;;;;;;;5012200;28;20030;-85
2022/11/25 09:16:20;;;;;;;11.80;3.90;;;;;;;;;;4983873;28;20098;-83
2022/11/25 09:18:46;;;;;;;10.02;3.88;;;;;;;;;;4993512;28;20495;-81
2022/11/25 09:21:23;;;;;;;26.90;10.70;;;;;;;;;;4987734;28;20474;-83
2022/11/25 09:24:05;;;;;;;6.93;3.35;;;;;;;;;;4989344;28;20052;-81
2022/11/25 09:26:39;;;;;;;4.45;2.72;;;;;;;;;;4974030;28;20561;-80
2022/11/25 09:29:24;;;;;;;12.30;4.30;;;;;;;;;;4976638;28;20032;-83
2022/11/25 09:31:50;;;;;;;2.53;1.80;;;;;;;;;;5008210;28;20045;-83
2022/11/25 09:34:16;;;;;;;3.38;1.90;;;;;;;;;;4992002;28;20036;-81
2022/11/25 09:36:45;;;;;;;4.47;2.38;;;;;;;;;;5010462;28;20065;-82
2022/11/25 09:39:11;;;;;;;3.58;2.30;;;;;;;;;;5007553;28;20021;-81
2022/11/25 09:47:37;;;;;;;3.80;1.88;;;;;;;;;;5010760;28;20600;-80
2022/11/25 09:50:24;;;;;;;5.15;3.35;;;;;;;;;;5010769;28;20042;-82
2022/11/25 09:53:09;;;;;;;3.80;2.38;;;;;;;;;;4990825;28;20053;-79
2022/11/25 09:55:39;;;;;;;4.07;3.15;;;;;;;;;;4992430;28;20042;-82
2022/11/25 09:58:27;;;;;;;2.90;1.52;;;;;;;;;;5010378;28;20100;-82
2022/11/25 10:00:53;;;;;;;4.03;1.83;;;;;;;;;;4989027;28;20112;-84
2022/11/25 10:03:32;;;;;;;3.80;2.33;;;;;;;;;;5015713;28;20026;-81
2022/11/25 10:05:58;;;;;;;13.43;10.75;;;;;;;;;;5014416;28;20385;-80
2022/11/25 10:08:27;;;;;;;4.95;2.40;;;;;;;;;;5011717;28;20048;-80
2022/11/25 10:11:00;;;;;;;3.78;1.90;;;;;;;;;;5014100;28;20032;-86
2022/11/25 10:13:45;;;;;;;3.53;2.22;;;;;;;;;;5007594;28;20032;-83
2022/11/25 10:16:24;;;;;;;5.25;2.72;;;;;;;;;;5000350;28;20037;-81
2022/11/25 10:18:55;;;;;;;9.65;4.63;;;;;;;;;;5006941;28;20034;-80
2022/11/25 10:21:21;;;;;;;4.38;1.73;;;;;;;;;;4996280;28;20034;-81
2022/11/25 10:23:48;;;;;;;3.42;1.77;;;;;;;;;;5002674;28;20557;-78
2022/11/25 10:26:15;;;;;;;4.25;2.22;;;;;;;;;;5003011;28;20226;-79
2022/11/25 10:28:46;;;;;;;3.80;1.98;;;;;;;;;;5006301;28;20089;-77
2022/11/25 10:31:15;;;;;;;4.78;2.28;;;;;;;;;;5004500;28;20485;-80
2022/11/25 10:33:59;;;;;;;11.30;4.05;;;;;;;;;;5011512;28;20038;-80
2022/11/25 10:36:27;;;;;;;6.65;4.15;;;;;;;;;;5004240;28;20045;-79
2022/11/25 10:38:56;;;;;;;4.93;2.58;;;;;;;;;;5009164;28;20392;-80
2022/11/25 10:41:24;;;;;;;7.35;3.30;;;;;;;;;;5009608;28;20041;-80
2022/11/25 10:43:50;;;;;;;4.65;2.40;;;;;;;;;;5005473;28;20053;-78
2022/11/25 10:46:16;;;;;;;5.18;3.20;;;;;;;;;;5007493;28;20029;-82
2022/11/25 10:48:42;;;;;;;5.90;3.40;;;;;;;;;;5008413;28;20097;-82
2022/11/25 10:51:21;;;;;;;5.28;3.55;;;;;;;;;;5020929;28;20034;-79
2022/11/25 10:54:06;;;;;;;11.48;6.97;;;;;;;;;;5008754;28;20030;-82
2022/11/25 10:56:41;;;;;;;8.93;5.13;;;;;;;;;;5010670;28;20037;-81
2022/11/25 10:59:14;;;;;;;8.77;4.85;;;;;;;;;;5009900;28;20025;-82
2022/11/25 11:01:44;;;;;;;7.63;6.30;;;;;;;;;;5019012;28;20504;-81
2022/11/25 11:04:17;;;;;;;8.30;5.03;;;;;;;;;;4996119;28;20068;-78
2022/11/25 11:06:44;;;;;;;5.32;3.95;;;;;;;;;;4994934;28;20053;-82
2022/11/25 11:09:29;;;;;;;5.72;4.25;;;;;;;;;;5013310;28;20485;-80
2022/11/25 11:12:19;;;;;;;16.52;8.15;;;;;;;;;;5011714;28;20562;-80
2022/11/25 11:14:46;;;;;;;13.88;7.13;;;;;;;;;;4999799;28;20050;-79
2022/11/25 11:17:31;;;;;;;17.42;8.57;;;;;;;;;;4993260;28;20045;-77
2022/11/25 11:20:02;;;;;;;15.13;6.35;;;;;;;;;;5004695;28;20057;-79
2022/11/25 11:22:28;;;;;;;8.77;3.90;;;;;;;;;;4997141;28;20117;-79
2022/11/25 11:25:07;;;;;;;9.70;5.25;;;;;;;;;;5012613;28;20385;-81
2022/11/25 11:27:36;;;;;;;8.02;4.10;;;;;;;;;;5005057;28;20026;-80
2022/11/25 11:30:22;;;;;;;7.05;3.97;;;;;;;;;;5007495;28;20473;-80
2022/11/25 11:32:57;;;;;;;8.57;4.90;;;;;;;;;;5015239;28;20424;-81
2022/11/25 11:35:23;;;;;;;;;;;;;;;;;;5010206;28;20033;-77
2022/11/25 11:37:52;;;;;;;8.32;3.75;;;;;;;;;;4994741;28;20261;-78
2022/11/25 11:40:37;;;;;;;4.72;2.35;;;;;;;;;;5012650;28;20733;-77
2022/11/25 11:43:03;;;;;;;;;;;;;;;;;;5004138;28;20037;-81
2022/11/25 11:45:47;;;;;;;6.05;4.38;;;;;;;;;;5010639;28;20368;-78
2022/11/25 11:48:27;;;;;;;5.07;3.20;;;;;;;;;;4998734;28;20104;-77
2022/11/25 11:51:00;;;;;;;6.82;2.30;;;;;;;;;;5014367;28;20038;-77
2022/11/25 11:53:26;;;;;;;4.40;2.50;;;;;;;;;;5012812;28;20030;-76
2022/11/25 11:56:16;;;;;;;11.55;6.28;;;;;;;;;;5021839;28;20039;-76
2022/11/25 11:59:14;;;;;;;4.47;2.80;;;;;;;;;;5019602;28;20026;-81
2022/11/25 12:01:40;;;;;;;6.20;3.15;;;;;;;;;;5003269;28;20058;-77
2022/11/25 12:04:20;;;;;;;5.40;2.95;;;;;;;;;;4975603;28;20038;-78
2022/11/25 12:07:01;;;;;;;6.30;3.00;;;;;;;;;;4975152;28;20089;-77
2022/11/25 12:09:29;;;;;;;4.90;3.22;;;;;;;;;;4990991;28;20057;-77
2022/11/25 12:11:58;;;;;;;5.43;3.40;;;;;;;;;;4998544;28;20377;-76
2022/11/25 12:14:27;;;;;;;7.95;4.50;;;;;;;;;;4995461;28;20034;-79
2022/11/25 12:16:56;;;;;;;8.20;4.70;;;;;;;;;;4975214;28;20050;-78
2022/11/25 12:19:42;;;;;;;6.50;3.10;;;;;;;;;;4973927;28;20030;-77
2022/11/25 12:22:27;;;;;;;3.55;1.65;;;;;;;;;;4970264;28;20046;-77
2022/11/25 12:25:08;;;;;;;5.43;2.35;;;;;;;;;;4987460;28;20871;-77
2022/11/25 12:27:40;;;;;;;5.43;1.67;;;;;;;;;;4975109;28;20427;-77
2022/11/25 12:30:10;;;;;;;5.13;1.95;;;;;;;;;;4981919;28;20037;-78
2022/11/25 12:32:41;;;;;;;47.92;20.10;;;;;;;;;;4981453;28;20041;-77
2022/11/25 12:35:11;;;;;;;7.47;3.83;;;;;;;;;;4978118;28;20022;-76
2022/11/25 12:37:43;;;;;;;8.55;4.45;;;;;;;;;;4980066;28;20564;-78
2022/11/25 12:40:15;;;;;;;8.18;4.13;;;;;;;;;;4980537;28;20058;-78
2022/11/25 12:42:41;;;;;;;5.20;2.47;;;;;;;;;;4979447;28;20769;-79
2022/11/25 12:45:15;;;;;;;4.43;2.35;;;;;;;;;;4983621;28;20053;-76
2022/11/25 12:47:42;;;;;;;6.43;2.55;;;;;;;;;;4983170;28;20494;-77
2022/11/25 12:50:14;;;;;;;8.23;5.63;;;;;;;;;;4980119;28;20049;-77
2022/11/25 12:52:40;;;;;;;8.63;4.18;;;;;;;;;;4981479;28;20172;-80
2022/11/25 12:55:26;;;;;;;12.88;11.52;;;;;;;;;;4984164;28;20456;-81
2022/11/25 12:58:11;;;;;;;4.32;2.95;;;;;;;;;;4972089;28;20390;-78
2022/11/25 13:01:00;;;;;;;5.60;3.65;;;;;;;;;;4982524;28;20497;-78
2022/11/25 13:03:45;;;;;;;5.95;3.83;;;;;;;;;;4996251;28;20189;-80
2022/11/25 13:06:12;;;;;;;;;;;;;;;;;;5005732;28;20027;-78
2022/11/25 13:08:57;;;;;;;9.75;6.43;;;;;;;;;;4995685;28;20006;-79
2022/11/25 13:11:23;;;;;;;;;;;;;;;;;;4998352;28;20189;-78
2022/11/25 13:14:18;;;;;;;6.10;3.45;;;;;;;;;;5010439;28;20336;-77
2022/11/25 13:16:46;;;;;;;7.97;4.85;;;;;;;;;;4996925;28;20045;-75
2022/11/25 13:19:16;;;;;;;9.57;6.50;;;;;;;;;;5005194;28;20120;-75
2022/11/25 13:22:01;;;;;;;9.07;5.50;;;;;;;;;;4999539;28;20065;-76
2022/11/25 13:24:29;;;;;;;13.10;9.55;;;;;;;;;;4997771;28;20026;-77
2022/11/25 13:26:55;;;;;;;19.73;16.02;;;;;;;;;;4997607;28;20132;-80
2022/11/25 13:29:24;;;;;;;13.35;9.40;;;;;;;;;;4996533;28;20109;-76
2022/11/25 13:31:55;;;;;;;6.90;3.33;;;;;;;;;;5000446;28;20038;-77
2022/11/25 13:34:21;;;;;;;6.70;4.88;;;;;;;;;;4998279;28;20568;-77
2022/11/25 13:36:51;;;;;;;10.25;6.00;;;;;;;;;;5000513;28;20452;-77
2022/11/25 13:39:37;;;;;;;16.75;11.40;;;;;;;;;;4986368;28;20065;-78
2022/11/25 13:42:12;;;;;;;9.15;5.65;;;;;;;;;;5005018;28;20030;-82
2022/11/25 13:44:49;;;;;;;11.57;7.68;;;;;;;;;;5005208;28;20054;-76
2022/11/25 13:47:24;;;;;;;8.00;6.25;;;;;;;;;;5001177;28;20097;-78
2022/11/25 13:49:52;;;;;;;10.57;7.70;;;;;;;;;;4998496;28;20334;-77
2022/11/25 13:52:18;;;;;;;7.20;5.18;;;;;;;;;;4991328;28;20062;-77
2022/11/25 13:54:55;;;;;;;6.50;3.95;;;;;;;;;;4993726;28;20073;-78
2022/11/25 13:57:28;;;;;;;14.93;11.40;;;;;;;;;;5004636;28;20034;-82
2022/11/25 13:59:56;;;;;;;11.70;7.72;;;;;;;;;;5012294;28;20026;-79
2022/11/25 14:02:30;;;;;;;10.27;6.93;;;;;;;;;;5006252;28;20501;-81
2022/11/25 14:05:03;;;;;;;6.65;4.32;;;;;;;;;;5010722;28;20029;-80
2022/11/25 14:07:48;;;;;;;8.05;4.85;;;;;;;;;;5010379;28;20499;-80
2022/11/25 14:10:14;;;;;;;;;;;;;;;;;;5011762;28;20021;-82
2022/11/25 14:12:50;;;;;;;15.57;10.55;;;;;;;;;;5010935;28;20018;-79
2022/11/25 14:15:35;;;;;;;18.40;13.45;;;;;;;;;;4997115;28;20045;-81
2022/11/25 14:18:00;;;;;;;;;;;;;;;;;;4991347;28;20037;-81
2022/11/25 14:20:45;;;;;;;9.23;6.38;;;;;;;;;;5013823;28;20287;-78
2022/11/25 14:23:38;;;;;;;15.43;10.20;;;;;;;;;;5018127;28;20030;-82
2022/11/25 14:26:08;;;;;;;19.63;13.88;;;;;;;;;;5003323;28;20030;-82
2022/11/25 14:28:51;;;;;;;31.45;22.35;;;;;;;;;;4986816;28;20543;-80
2022/11/25 14:31:21;;;;;;;22.80;16.85;;;;;;;;;;5016687;28;20076;-81
2022/11/25 14:33:56;;;;;;;14.38;11.00;;;;;;;;;;5004294;28;20108;-80
2022/11/25 14:36:26;;;;;;;12.45;7.72;;;;;;;;;;4995168;28;20039;-80
2022/11/25 14:38:58;;;;;;;8.85;6.50;;;;;;;;;;5021591;28;20028;-79
2022/11/25 14:41:29;;;;;;;15.75;11.32;;;;;;;;;;4995020;28;20034;-80
2022/11/25 14:43:58;;;;;;;14.18;9.15;;;;;;;;;;5004623;28;20082;-80
2022/11/25 14:46:24;;;;;;;14.05;9.50;;;;;;;;;;5029797;28;20029;-81
2022/11/25 14:48:57;;;;;;;15.57;10.38;;;;;;;;;;5021546;28;20033;-80
2022/11/25 14:51:25;;;;;;;13.68;8.20;;;;;;;;;;5011848;28;20447;-81
2022/11/25 14:53:51;;;;;;;18.98;12.60;;;;;;;;;;5014269;28;20037;-81
2022/11/25 14:56:32;;;;;;;18.13;12.43;;;;;;;;;;5014126;28;20032;-81
2022/11/25 14:58:58;;;;;;;17.02;11.30;;;;;;;;;;5012998;28;20030;-81
2022/11/25 15:01:43;;;;;;;17.70;11.98;;;;;;;;;;5004924;28;20492;-81
2022/11/25 15:04:09;;;;;;;;;;;;;;;;;;5010434;28;20022;-80
2022/11/25 15:06:37;;;;;;;20.45;14.13;;;;;;;;;;5012817;28;20423;-83
2022/11/25 15:09:03;;;;;;;20.38;13.68;;;;;;;;;;5013152;28;20121;-80
2022/11/25 15:11:31;;;;;;;18.98;11.60;;;;;;;;;;5014254;28;20153;-82
2022/11/25 15:13:57;;;;;;;14.23;10.02;;;;;;;;;;5015486;28;20030;-81
2022/11/25 15:16:25;;;;;;;12.38;10.23;;;;;;;;;;5012973;28;20064;-78